Time;durP1;ratioP1;P1;durP2;ratioP2;P2;SDS_P1;SDS_P2;PMS_P1;PMS_P2;Temp;Humidity;BMP_temperature;BMP_pressure;BME280_temperature;BME280_humidity;BME280_pressure;Samples;Min_cycle;Max_cycle;Signal;HPM_P1;HPM_P2
2022/10/25 00:00:27;;;;;;;;;;;;;;;21.42;28.26;98276.69;5034202;28;984;-81
2022/10/25 00:02:53;;;;;;;;;;;;;;;21.50;28.09;98272.47;5034109;28;820;-81
2022/10/25 00:05:18;;;;;;;;;;;;;;;21.22;28.75;98265.38;5033945;28;1917;-81
2022/10/25 00:07:44;;;;;;;;;;;;;;;20.87;29.12;98261.22;5034006;28;929;-81
2022/10/25 00:10:09;;;;;;;;;;;;;;;20.81;29.10;98264.53;5034087;28;1089;-81
2022/10/25 00:12:39;;;;;;;;;;;;;;;20.99;29.01;98263.41;5033872;28;1066;-81
2022/10/25 00:15:05;;;;;;;;;;;;;;;20.78;29.19;98258.97;5033968;28;778;-81
2022/10/25 00:17:30;;;;;;;;;;;;;;;21.14;28.84;98256.22;5033745;28;919;-81
2022/10/25 00:19:56;;;;;;;;;;;;;;;21.38;28.27;98253.31;5034040;28;1230;-81
2022/10/25 00:22:21;;;;;;;;;;;;;;;21.50;28.25;98252.66;5017211;28;981;-81
2022/10/25 00:24:47;;;;;;;;;;;;;;;20.99;28.68;98246.44;5033809;28;896;-81
2022/10/25 00:27:12;;;;;;;;;;;;;;;20.96;28.85;98247.31;5033648;28;1906;-81
2022/10/25 00:29:37;;;;;;;;;;;;;;;20.95;28.82;98252.16;5039648;28;1302;-81
2022/10/25 00:32:03;;;;;;;;;;;;;;;20.88;29.20;98238.19;5039413;28;723;-81
2022/10/25 00:34:28;;;;;;;;;;;;;;;21.53;28.27;98240.47;5058486;28;1224;-81
2022/10/25 00:36:54;;;;;;;;;;;;;;;21.41;28.19;98238.31;5058358;28;814;-81
2022/10/25 00:39:19;;;;;;;;;;;;;;;21.07;28.54;98242.22;5057233;28;942;-81
2022/10/25 00:41:45;;;;;;;;;;;;;;;21.02;28.67;98251.22;5059667;28;683;-81
2022/10/25 00:44:29;;;;;;;;;;;;;;;20.93;29.09;98242.50;5057197;28;854;-81
2022/10/25 00:46:54;;;;;;;;;;;;;;;20.74;29.41;98230.75;5056871;28;1949;-81
2022/10/25 00:49:20;;;;;;;;;;;;;;;21.20;28.72;98229.03;5040591;28;1112;-81
2022/10/25 00:51:52;;;;;;;;;;;;;;;21.35;28.19;98223.88;5040661;28;1270;-81
2022/10/25 00:54:19;;;;;;;;;;;;;;;21.28;28.41;98224.00;5040271;28;945;-81
2022/10/25 00:56:44;;;;;;;;;;;;;;;21.06;28.47;98232.13;5056765;28;688;-81
2022/10/25 00:59:11;;;;;;;;;;;;;;;20.86;29.12;98231.34;5020650;28;1143;-81
2022/10/25 01:01:37;;;;;;;;;;;;;;;20.75;29.09;98232.34;5036973;28;1202;-81
2022/10/25 01:04:04;;;;;;;;;;;;;;;21.17;28.73;98229.88;5036470;28;895;-81
2022/10/25 01:06:33;;;;;;;;;;;;;;;21.30;28.58;98225.19;5020301;28;1914;-81
2022/10/25 01:08:58;;;;;;;;;;;;;;;21.57;27.79;98224.19;5036516;28;863;-81
2022/10/25 01:11:24;;;;;;;;;;;;;;;21.29;28.41;98220.72;5020043;28;696;-81
2022/10/25 01:13:49;;;;;;;;;;;;;;;21.20;28.68;98216.91;5020014;28;924;-81
2022/10/25 01:16:21;;;;;;;;;;;;;;;20.88;28.91;98218.38;5020224;28;1051;-81
2022/10/25 01:18:53;;;;;;;;;;;;;;;20.92;28.84;98213.41;5036575;28;1153;-81
2022/10/25 01:21:34;;;;;;;;;;;;;;;21.36;28.50;98207.69;5053286;28;810;-81
2022/10/25 01:24:00;;;;;;;;;;;;;;;21.46;28.24;98209.47;5036423;28;834;-81
2022/10/25 01:26:25;;;;;;;;;;;;;;;21.17;28.77;98203.63;5053056;28;1906;-81
2022/10/25 01:28:50;;;;;;;;;;;;;;;21.00;29.11;98211.25;5036344;28;1092;-81
2022/10/25 01:31:34;;;;;;;;;;;;;;;20.92;29.02;98218.28;5052727;28;977;-81
2022/10/25 01:34:00;;;;;;;;;;;;;;;20.81;29.24;98212.84;5038149;28;811;-81
2022/10/25 01:36:31;;;;;;;;;;;;;;;21.33;28.57;98212.97;5057218;28;752;-81
2022/10/25 01:39:05;;;;;;;;;;;;;;;21.42;28.51;98205.94;5057341;28;798;-81
2022/10/25 01:41:48;;;;;;;;;;;;;;;21.23;28.57;98216.81;5040643;28;716;-81
2022/10/25 01:44:20;;;;;;;;;;;;;;;21.06;29.04;98210.31;5055953;28;823;-81
2022/10/25 01:47:12;;;;;;;;;;;;;;;21.03;29.05;98207.53;5056893;28;1980;-81
2022/10/25 01:49:37;;;;;;;;;;;;;;;20.71;29.63;98214.66;5057994;28;751;-81
2022/10/25 01:52:03;;;;;;;;;;;;;;;21.20;28.98;98209.22;5057796;28;728;-81
2022/10/25 01:54:28;;;;;;;;;;;;;;;21.60;28.19;98211.97;5072582;28;1202;-81
2022/10/25 01:56:57;;;;;;;;;;;;;;;21.20;28.87;98206.38;5040398;28;735;-81
2022/10/25 01:59:23;;;;;;;;;;;;;;;20.94;29.38;98210.19;5055413;28;874;-81
2022/10/25 02:01:57;;;;;;;;;;;;;;;20.77;29.45;98207.25;5039042;28;1189;-81
2022/10/25 02:04:30;;;;;;;;;;;;;;;20.92;29.09;98209.78;5055466;28;964;-81
2022/10/25 02:07:00;;;;;;;;;;;;;;;21.23;28.82;98202.66;5038819;28;1981;-81
2022/10/25 02:09:38;;;;;;;;;;;;;;;21.40;28.73;98202.72;5038715;28;786;-81
2022/10/25 02:12:03;;;;;;;;;;;;;;;20.95;29.47;98194.78;5055348;28;834;-81
2022/10/25 02:14:34;;;;;;;;;;;;;;;20.98;29.13;98193.91;5022323;28;1111;-81
2022/10/25 02:17:06;;;;;;;;;;;;;;;20.82;29.45;98191.81;5055313;28;767;-81
2022/10/25 02:19:32;;;;;;;;;;;;;;;21.05;29.15;98196.59;5039117;28;1209;-81
2022/10/25 02:21:58;;;;;;;;;;;;;;;21.30;28.59;98196.88;5055292;28;806;-81
2022/10/25 02:24:25;;;;;;;;;;;;;;;21.65;28.30;98197.28;5038648;28;1102;-81
2022/10/25 02:26:50;;;;;;;;;;;;;;;21.20;28.65;98194.25;5022028;28;1980;-81
2022/10/25 02:29:16;;;;;;;;;;;;;;;20.94;29.43;98187.56;5038885;28;1109;-81
2022/10/25 02:31:41;;;;;;;;;;;;;;;20.90;29.17;98184.78;5039554;28;724;-81
2022/10/25 02:34:07;;;;;;;;;;;;;;;21.31;28.60;98187.16;5039435;28;799;-81
2022/10/25 02:36:32;;;;;;;;;;;;;;;21.42;28.45;98184.09;5057402;28;818;-81
2022/10/25 02:38:58;;;;;;;;;;;;;;;21.29;28.43;98185.94;5057086;28;955;-81
2022/10/25 02:41:23;;;;;;;;;;;;;;;21.20;28.85;98183.75;5056381;28;806;-81
2022/10/25 02:43:49;;;;;;;;;;;;;;;20.98;29.28;98185.41;5056794;28;842;-81
2022/10/25 02:46:15;;;;;;;;;;;;;;;20.91;29.22;98177.09;5055944;28;1985;-81
2022/10/25 02:48:41;;;;;;;;;;;;;;;20.86;29.26;98192.53;5039353;28;1204;-81
2022/10/25 02:51:06;;;;;;;;;;;;;;;21.49;28.41;98180.28;5039241;28;1140;-81
2022/10/25 02:53:32;;;;;;;;;;;;;;;21.59;28.34;98193.38;5055945;28;1217;-81
2022/10/25 02:55:58;;;;;;;;;;;;;;;21.25;28.86;98180.41;5054669;28;863;-81
2022/10/25 02:58:23;;;;;;;;;;;;;;;20.75;29.65;98189.94;5054874;28;874;-81
2022/10/25 03:00:49;;;;;;;;;;;;;;;20.91;29.33;98185.56;5054636;28;996;-81
2022/10/25 03:03:14;;;;;;;;;;;;;;;21.15;29.17;98187.09;5038054;28;846;-81
2022/10/25 03:05:40;;;;;;;;;;;;;;;21.47;28.38;98194.09;5054201;28;1973;-81
2022/10/25 03:08:05;;;;;;;;;;;;;;;21.37;28.40;98186.63;5054448;28;747;-81
2022/10/25 03:10:31;;;;;;;;;;;;;;;21.08;28.83;98192.88;5037970;28;1186;-81
2022/10/25 03:12:56;;;;;;;;;;;;;;;20.92;29.13;98184.34;5037860;28;862;-81
2022/10/25 03:15:21;;;;;;;;;;;;;;;20.95;29.39;98189.13;5054281;28;826;-81
2022/10/25 03:17:47;;;;;;;;;;;;;;;21.19;28.83;98193.47;5037821;28;1226;-81
2022/10/25 03:20:12;;;;;;;;;;;;;;;21.29;28.55;98192.41;5037849;28;1127;-81
2022/10/25 03:22:38;;;;;;;;;;;;;;;21.28;28.48;98185.16;5038086;28;1224;-81
2022/10/25 03:25:03;;;;;;;;;;;;;;;21.09;28.60;98183.19;5054328;28;723;-81
2022/10/25 03:27:29;;;;;;;;;;;;;;;20.94;29.03;98176.22;5054093;28;2006;-81
2022/10/25 03:29:54;;;;;;;;;;;;;;;20.71;29.48;98175.06;5014787;28;1174;-81
2022/10/25 03:32:20;;;;;;;;;;;;;;;21.04;28.95;98167.50;5011887;28;1218;-81
2022/10/25 03:34:45;;;;;;;;;;;;;;;21.26;28.91;98167.84;5053835;28;954;-81
2022/10/25 03:37:10;;;;;;;;;;;;;;;21.30;28.74;98171.41;5053508;28;1274;-81
2022/10/25 03:43:10;;;;;;;;;;;;;;;20.70;29.50;98159.34;5054017;28;821;-81
2022/10/25 03:45:36;;;;;;;;;;;;;;;20.90;29.07;98161.38;5017390;28;1910;-81
2022/10/25 03:48:01;;;;;;;;;;;;;;;20.74;29.20;98159.28;5034007;28;1280;-81
2022/10/25 03:54:01;;;;;;;;;;;;;;;21.41;28.44;98148.53;5034107;28;974;-81
2022/10/25 03:56:27;;;;;;;;;;;;;;;21.23;28.52;98148.88;5017977;28;799;-81
2022/10/25 03:58:52;;;;;;;;;;;;;;;21.02;28.99;98155.03;4985079;28;1160;-81
2022/10/25 04:01:18;;;;;;;;;;;;;;;20.95;29.15;98155.19;5079816;28;1388;-81
2022/10/25 04:03:44;;;;;;;;;;;;;;;21.06;29.08;98155.75;5077778;28;1110;-81
2022/10/25 04:09:44;;;;;;;;;;;;;;;21.44;28.25;98141.16;5037726;28;727;-81
2022/10/25 04:12:09;;;;;;;;;;;;;;;21.50;28.07;98140.22;5036824;28;1419;-81
2022/10/25 04:14:35;;;;;;;;;;;;;;;21.03;29.08;98145.31;5038033;28;841;-81
2022/10/25 04:17:00;;;;;;;;;;;;;;;20.95;29.02;98149.53;5037934;28;838;-80
2022/10/25 04:19:26;;;;;;;;;;;;;;;21.04;28.61;98152.56;5037823;28;807;-81
2022/10/25 04:21:51;;;;;;;;;;;;;;;20.81;29.18;98144.97;5036900;28;1479;-81
2022/10/25 04:24:17;;;;;;;;;;;;;;;20.80;29.24;98137.72;5037490;28;975;-81
2022/10/25 04:26:42;;;;;;;;;;;;;;;21.43;28.19;98136.75;5037589;28;1967;-81
2022/10/25 04:29:08;;;;;;;;;;;;;;;21.58;27.98;98141.63;5021025;28;747;-81
2022/10/25 04:31:34;;;;;;;;;;;;;;;21.11;28.64;98126.94;5020997;28;834;-81
2022/10/25 04:33:59;;;;;;;;;;;;;;;20.94;29.17;98143.09;5037139;28;943;-81
2022/10/25 04:36:25;;;;;;;;;;;;;;;20.89;29.41;98128.66;5042943;28;1526;-81
2022/10/25 04:38:51;;;;;;;;;;;;;;;21.04;28.88;98130.75;5044227;28;1519;-81
2022/10/25 04:41:17;;;;;;;;;;;;;;;21.33;28.40;98125.25;5057411;28;775;-81
2022/10/25 04:43:43;;;;;;;;;;;;;;;21.57;27.88;98136.41;5057037;28;892;-80
2022/10/25 04:46:09;;;;;;;;;;;;;;;21.17;28.46;98138.53;5040452;28;1914;-81
2022/10/25 04:48:38;;;;;;;;;;;;;;;20.96;29.08;98136.97;5059902;28;1575;-81
2022/10/25 04:51:04;;;;;;;;;;;;;;;20.91;29.07;98131.84;5073030;28;1814;-81
2022/10/25 04:53:29;;;;;;;;;;;;;;;20.85;29.22;98133.59;5039774;28;1329;-80
2022/10/25 04:56:04;;;;;;;;;;;;;;;21.06;28.81;98124.63;5091761;28;1856;-81
2022/10/25 04:58:30;;;;;;;;;;;;;;;21.41;28.40;98125.88;5060191;28;1001;-81
2022/10/25 05:01:03;;;;;;;;;;;;;;;21.22;28.55;98135.97;5076624;28;854;-81
2022/10/25 05:03:28;;;;;;;;;;;;;;;21.07;28.63;98140.38;5055997;28;944;-81
2022/10/25 05:05:54;;;;;;;;;;;;;;;21.02;28.85;98144.50;5039833;28;1905;-81
2022/10/25 05:08:19;;;;;;;;;;;;;;;20.98;29.05;98145.81;5056489;28;1960;-81
2022/10/25 05:10:52;;;;;;;;;;;;;;;21.21;28.52;98140.06;5056318;28;766;-81
2022/10/25 05:13:17;;;;;;;;;;;;;;;21.43;28.13;98139.59;5039604;28;791;-81
2022/10/25 05:15:43;;;;;;;;;;;;;;;21.26;28.40;98148.03;5056381;28;810;-81
2022/10/25 05:18:08;;;;;;;;;;;;;;;21.08;28.83;98148.41;5055092;28;799;-81
2022/10/25 05:20:33;;;;;;;;;;;;;;;20.76;29.16;98143.44;5040186;28;1566;-81
2022/10/25 05:22:59;;;;;;;;;;;;;;;21.02;28.82;98146.53;5039919;28;872;-81
2022/10/25 05:25:24;;;;;;;;;;;;;;;20.95;28.89;98143.88;5023338;28;1979;-81
2022/10/25 05:27:50;;;;;;;;;;;;;;;21.20;28.67;98151.81;5034922;28;1668;-81
2022/10/25 05:30:15;;;;;;;;;;;;;;;21.43;28.25;98153.72;5027007;28;1850;-81
2022/10/25 05:32:42;;;;;;;;;;;;;;;21.52;27.87;98159.59;5048631;28;779;-81
2022/10/25 05:35:07;;;;;;;;;;;;;;;21.08;28.64;98158.94;5052643;28;1114;-81
2022/10/25 05:37:33;;;;;;;;;;;;;;;20.89;28.81;98169.06;5058348;28;774;-81
2022/10/25 05:39:58;;;;;;;;;;;;;;;20.84;29.08;98171.59;5058328;28;838;-81
2022/10/25 05:42:24;;;;;;;;;;;;;;;20.65;29.34;98171.16;5051103;28;1477;-81
2022/10/25 05:44:49;;;;;;;;;;;;;;;21.38;28.55;98171.25;5037084;28;1264;-81
2022/10/25 05:47:15;;;;;;;;;;;;;;;21.54;28.02;98174.09;5036861;28;1989;-81
2022/10/25 05:49:41;;;;;;;;;;;;;;;21.31;28.30;98178.66;5037169;28;1099;-81
2022/10/25 05:52:06;;;;;;;;;;;;;;;21.02;28.81;98180.50;5037003;28;751;-81
2022/10/25 05:54:32;;;;;;;;;;;;;;;21.01;28.88;98181.72;5053854;28;845;-81
2022/10/25 05:56:57;;;;;;;;;;;;;;;21.18;28.74;98182.56;5015850;28;863;-81
2022/10/25 05:59:23;;;;;;;;;;;;;;;20.97;29.23;98181.78;5032258;28;983;-81
2022/10/25 06:01:48;;;;;;;;;;;;;;;21.39;28.46;98184.16;5040562;28;1564;-81
2022/10/25 06:04:14;;;;;;;;;;;;;;;21.47;28.46;98185.59;5022472;28;1738;-81
2022/10/25 06:06:39;;;;;;;;;;;;;;;21.13;28.97;98180.25;5018945;28;1903;-80
2022/10/25 06:09:05;;;;;;;;;;;;;;;21.17;28.68;98184.59;5035389;28;1857;-81
2022/10/25 06:11:30;;;;;;;;;;;;;;;20.98;29.45;98176.94;5051805;28;815;-81
2022/10/25 06:13:56;;;;;;;;;;;;;;;20.88;29.59;98180.78;5023282;28;1865;-81
2022/10/25 06:16:21;;;;;;;;;;;;;;;20.85;29.36;98179.63;5015678;28;850;-81
2022/10/25 06:18:47;;;;;;;;;;;;;;;20.88;29.42;98183.59;5029206;28;1748;-84
2022/10/25 06:21:13;;;;;;;;;;;;;;;21.73;28.42;98176.06;5054000;28;1121;-86
2022/10/25 06:23:38;;;;;;;;;;;;;;;21.70;28.66;98187.47;5039499;28;1165;-88
2022/10/25 06:26:05;;;;;;;;;;;;;;;21.23;29.26;98182.84;5056772;28;1914;-87
2022/10/25 06:28:30;;;;;;;;;;;;;;;21.52;29.03;98182.25;5057791;28;1233;-88
2022/10/25 06:31:06;;;;;;;;;;;;;;;21.40;29.43;98180.91;5054837;28;944;-85
2022/10/25 06:33:31;;;;;;;;;;;;;;;21.20;29.58;98177.28;5044214;28;1617;-75
2022/10/25 06:35:57;;;;;;;;;;;;;;;21.29;29.70;98186.75;5055466;28;1777;-86
2022/10/25 06:38:23;;;;;;;;;;;;;;;21.02;29.69;98183.31;5051878;28;1843;-86
2022/10/25 06:40:48;;;;;;;;;;;;;;;21.02;29.83;98177.66;5073556;28;1229;-86
2022/10/25 06:43:14;;;;;;;;;;;;;;;21.46;28.96;98167.03;5039966;28;1113;-85
2022/10/25 06:45:42;;;;;;;;;;;;;;;21.26;29.35;98176.31;5056974;28;1911;-87
2022/10/25 06:48:08;;;;;;;;;;;;;;;21.18;29.48;98180.53;5033185;28;1494;-86
2022/10/25 06:50:33;;;;;;;;;;;;;;;21.10;29.67;98173.44;5036491;28;748;-85
2022/10/25 06:52:59;;;;;;;;;;;;;;;21.08;29.76;98176.69;5046741;28;1502;-86
2022/10/25 06:55:24;;;;;;;;;;;;;;;21.30;29.58;98182.75;5017215;28;1502;-85
2022/10/25 06:57:50;;;;;;;;;;;;;;;21.32;29.58;98174.59;5051686;28;1530;-83
2022/10/25 07:00:15;;;;;;;;;;;;;;;21.29;29.73;98164.09;5045445;28;739;-82
2022/10/25 07:02:41;;;;;;;;;;;;;;;21.27;29.73;98172.25;5043313;28;1495;-82
2022/10/25 07:05:06;;;;;;;;;;;;;;;21.13;29.86;98169.72;5025872;28;1373;-85
2022/10/25 07:07:32;;;;;;;;;;;;;;;21.32;29.67;98176.63;5034329;28;1914;-81
2022/10/25 07:09:57;;;;;;;;;;;;;;;21.32;29.85;98171.75;5034464;28;961;-81
2022/10/25 07:12:23;;;;;;;;;;;;;;;20.95;30.19;98172.97;5001809;28;1120;-82
2022/10/25 07:14:48;;;;;;;;;;;;;;;20.93;30.20;98164.09;5020487;28;1743;-81
2022/10/25 07:17:14;;;;;;;;;;;;;;;21.20;30.30;98172.41;5053985;28;1691;-81
2022/10/25 07:19:39;;;;;;;;;;;;;;;21.41;29.75;98159.06;5020098;28;944;-81
2022/10/25 07:22:05;;;;;;;;;;;;;;;21.38;29.78;98165.59;5033538;28;1763;-81
2022/10/25 07:24:30;;;;;;;;;;;;;;;21.11;30.05;98162.94;4997926;28;1080;-81
2022/10/25 07:26:55;;;;;;;;;;;;;;;20.98;30.40;98165.63;4998055;28;1910;-81
2022/10/25 07:29:21;;;;;;;;;;;;;;;20.89;30.44;98162.59;4998517;28;1266;-81
2022/10/25 07:31:47;;;;;;;;;;;;;;;21.01;30.20;98170.41;5014167;28;882;-81
2022/10/25 07:34:13;;;;;;;;;;;;;;;21.13;30.15;98166.91;5009629;28;1906;-81
2022/10/25 07:36:38;;;;;;;;;;;;;;;21.51;29.76;98163.66;5015308;28;772;-81
2022/10/25 07:39:04;;;;;;;;;;;;;;;21.61;29.51;98159.78;5053640;28;862;-81
2022/10/25 07:41:29;;;;;;;;;;;;;;;21.28;29.65;98162.53;5037472;28;1482;-81
2022/10/25 07:43:55;;;;;;;;;;;;;;;21.23;29.73;98170.72;5024984;28;1207;-81
2022/10/25 07:46:20;;;;;;;;;;;;;;;21.13;29.91;98166.91;5058155;28;1902;-81
2022/10/25 07:48:46;;;;;;;;;;;;;;;21.09;30.19;98166.22;5057603;28;1640;-81
2022/10/25 07:51:12;;;;;;;;;;;;;;;20.91;30.30;98165.78;5008853;28;1261;-81
2022/10/25 07:53:38;;;;;;;;;;;;;;;21.49;29.25;98163.28;5057836;28;758;-81
2022/10/25 07:56:04;;;;;;;;;;;;;;;21.55;29.12;98164.34;5059305;28;934;-81
2022/10/25 07:58:29;;;;;;;;;;;;;;;21.38;29.56;98160.72;5092569;28;794;-81
2022/10/25 08:01:07;;;;;;;;;;;;;;;21.39;29.51;98155.84;5060145;28;1512;-81
2022/10/25 08:03:32;;;;;;;;;;;;;;;21.37;29.75;98152.66;5072050;28;714;-81
2022/10/25 08:05:58;;;;;;;;;;;;;;;21.14;29.76;98151.53;5043328;28;1967;-81
2022/10/25 08:08:24;;;;;;;;;;;;;;;20.93;30.46;98146.34;5057797;28;837;-81
2022/10/25 08:10:50;;;;;;;;;;;;;;;21.00;30.26;98149.03;5077101;28;980;-81
2022/10/25 08:13:15;;;;;;;;;;;;;;;21.28;29.75;98148.38;5060819;28;876;-81
2022/10/25 08:15:41;;;;;;;;;;;;;;;21.71;29.24;98153.06;5044219;28;1229;-81
2022/10/25 08:18:06;;;;;;;;;;;;;;;21.26;29.76;98148.03;5051792;28;1478;-81
2022/10/25 08:20:31;;;;;;;;;;;;;;;21.05;30.38;98142.84;5041005;28;882;-81
2022/10/25 08:22:57;;;;;;;;;;;;;;;21.01;30.31;98147.78;5041038;28;808;-80
2022/10/25 08:25:23;;;;;;;;;;;;;;;20.86;30.32;98140.84;5040987;28;2304;-80
2022/10/25 08:27:49;;;;;;;;;;;;;;;21.01;30.00;98139.28;5038747;28;1566;-80
2022/10/25 08:30:14;;;;;;;;;;;;;;;21.06;30.11;98138.78;5032896;28;1487;-80
2022/10/25 08:32:40;;;;;;;;;;;;;;;21.46;29.48;98133.06;5040797;28;1112;-80
2022/10/25 08:35:05;;;;;;;;;;;;;;;21.59;29.26;98134.72;5036353;28;1549;-80
2022/10/25 08:37:31;;;;;;;;;;;;;;;21.18;30.02;98129.59;5021519;28;1794;-80
2022/10/25 08:39:56;;;;;;;;;;;;;;;21.11;29.93;98131.81;5006228;28;1147;-80
2022/10/25 08:42:25;;;;;;;;;;;;;;;20.97;30.01;98124.44;5017413;28;957;-80
2022/10/25 08:44:56;;;;;;;;;;;;;;;20.79;30.41;98127.66;5017653;28;1286;-80
2022/10/25 08:47:22;;;;;;;;;;;;;;;21.03;30.18;98122.66;5017286;28;1973;-80
2022/10/25 08:49:47;;;;;;;;;;;;;;;20.91;30.37;98126.19;5017222;28;774;-80
2022/10/25 08:52:39;;;;;;;;;;;;;;;20.92;29.99;98122.91;5035842;28;1582;-81
2022/10/25 08:55:05;;;;;;;;;;;;;;;21.24;29.79;98122.22;5051660;28;1130;-80
2022/10/25 08:57:33;;;;;;;;;;;;;;;21.50;29.33;98125.25;5036944;28;839;-80
2022/10/25 09:00:06;;;;;;;;;;;;;;;21.31;29.51;98124.09;5019640;28;1452;-80
2022/10/25 09:02:42;;;;;;;;;;;;;;;21.06;30.02;98121.81;5036802;28;742;-80
2022/10/25 09:05:22;;;;;;;;;;;;;;;21.02;30.16;98119.03;5020378;28;1236;-80
2022/10/25 09:07:54;;;;;;;;;;;;;;;20.93;30.59;98120.88;5037689;28;820;-81
2022/10/25 09:10:31;;;;;;;;;;;;;;;21.10;30.16;98127.41;5037933;28;1396;-80
2022/10/25 09:13:00;;;;;;;;;;;;;;;21.19;29.62;98125.56;5038310;28;1517;-80
2022/10/25 09:15:42;;;;;;;;;;;;;;;21.07;30.02;98124.19;5070999;28;1103;-80
2022/10/25 09:21:55;;;;;;;;;;;;;;;21.26;29.86;98105.56;5038852;28;609;-80
2022/10/25 09:24:21;;;;;;;;;;;;;;;21.36;29.85;98102.97;5048271;28;1471;-80
2022/10/25 09:27:06;;;;;;;;;;;;;;;21.32;29.80;98106.66;5068399;28;1910;-80
2022/10/25 09:29:38;;;;;;;;;;;;;;;21.01;30.27;98099.69;5057866;28;1181;-80
2022/10/25 09:32:11;;;;;;;;;;;;;;;20.97;30.54;98102.59;5073865;28;802;-80
2022/10/25 09:34:36;;;;;;;;;;;;;;;21.13;29.92;98096.16;5053015;28;934;-80
2022/10/25 09:37:03;;;;;;;;;;;;;;;20.96;30.52;98092.50;5019683;28;1215;-81
2022/10/25 09:39:36;;;;;;;;;;;;;;;21.28;29.93;98088.94;5019638;28;857;-80
2022/10/25 09:42:02;;;;;;;;;;;;;;;21.60;29.44;98093.03;5032213;28;1431;-80
2022/10/25 09:44:35;;;;;;;;;;;;;;;21.31;29.90;98088.09;5016344;28;1344;-80
2022/10/25 09:47:05;;;;;;;;;;;;;;;21.33;29.68;98091.28;5015706;28;1910;-80
2022/10/25 09:49:48;;;;;;;;;;;;;;;21.13;30.19;98089.72;5032952;28;924;-80
2022/10/25 09:52:13;;;;;;;;;;;;;;;21.06;30.45;98087.84;5032583;28;778;-80
2022/10/25 09:54:41;;;;;;;;;;;;;;;21.03;30.39;98083.06;5017215;28;1693;-80
2022/10/25 09:57:06;;;;;;;;;;;;;;;20.93;30.52;98084.09;5052322;28;751;-80
2022/10/25 09:59:32;;;;;;;;;;;;;;;20.89;30.66;98069.28;5036197;28;803;-80
2022/10/25 10:01:57;;;;;;;;;;;;;;;20.72;30.68;98069.19;5019236;28;1437;-80
2022/10/25 10:04:35;;;;;;;;;;;;;;;21.16;30.34;98081.16;5035049;28;932;-80
2022/10/25 10:07:21;;;;;;;;;;;;;;;21.32;29.91;98067.03;5070173;28;1890;-80
2022/10/25 10:09:47;;;;;;;;;;;;;;;21.13;30.15;98065.03;5049914;28;1576;-80
2022/10/25 10:12:16;;;;;;;;;;;;;;;21.16;30.19;98069.84;5035455;28;930;-80
2022/10/25 10:14:46;;;;;;;;;;;;;;;21.21;30.32;98063.66;5038580;28;1919;-80
2022/10/25 10:17:12;;;;;;;;;;;;;;;21.00;30.51;98064.16;5053992;28;1478;-80
2022/10/25 10:19:39;;;;;;;;;;;;;;;21.05;30.31;98060.81;5038574;28;811;-80
2022/10/25 10:22:07;;;;;;;;;;;;;;;21.06;30.23;98057.53;5001596;28;1490;-80
2022/10/25 10:24:33;;;;;;;;;;;;;;;21.19;30.06;98052.00;5019167;28;1540;-80
2022/10/25 10:26:59;;;;;;;;;;;;;;;21.57;29.57;98045.81;5035086;28;1979;-81
2022/10/25 10:29:25;;;;;;;;;;;;;;;21.70;29.33;98041.00;5035176;28;771;-80
2022/10/25 10:31:54;;;;;;;;;;;;;;;21.40;29.80;98042.22;4998826;28;825;-80
2022/10/25 10:34:45;;;;;;;;;;;;;;;21.39;29.76;98039.78;5015000;28;991;-80
2022/10/25 10:37:11;;;;;;;;;;;;;;;21.08;30.24;98034.44;4995583;28;1211;-80
2022/10/25 10:39:46;;;;;;;;;;;;;;;21.17;30.30;98036.69;4945589;29;1509;-80
2022/10/25 10:42:15;;;;;;;;;;;;;;;20.91;30.58;98036.47;4937599;29;977;-80
2022/10/25 10:44:40;;;;;;;;;;;;;;;21.06;30.25;98036.94;4937542;29;961;-80
2022/10/25 10:47:09;;;;;;;;;;;;;;;20.91;30.91;98035.69;4914670;29;1902;-80
2022/10/25 10:49:36;;;;;;;;;;;;;;;21.14;30.16;98032.72;4915413;29;829;-80
2022/10/25 10:52:02;;;;;;;;;;;;;;;21.38;30.05;98036.16;4915528;29;1116;-80
2022/10/25 10:54:32;;;;;;;;;;;;;;;21.40;29.88;98027.22;4900485;29;1892;-80
2022/10/25 10:57:01;;;;;;;;;;;;;;;21.32;29.78;98016.09;4931491;29;1535;-80
2022/10/25 10:59:33;;;;;;;;;;;;;;;21.20;30.50;98019.63;4903008;29;946;-80
2022/10/25 11:02:17;;;;;;;;;;;;;;;21.23;30.11;98015.88;4899766;29;1715;-80
2022/10/25 11:04:49;;;;;;;;;;;;;;;21.07;30.37;98013.06;4902813;29;1110;-80
2022/10/25 11:07:19;;;;;;;;;;;;;;;20.95;30.59;98019.41;4918114;29;1907;-80
2022/10/25 11:09:45;;;;;;;;;;;;;;;20.98;30.79;98015.69;4923954;29;1215;-80
2022/10/25 11:12:10;;;;;;;;;;;;;;;20.99;30.47;98008.81;4924898;29;822;-80
2022/10/25 11:14:36;;;;;;;;;;;;;;;20.96;30.45;98021.00;5000644;28;1043;-80
2022/10/25 11:17:15;;;;;;;;;;;;;;;20.95;30.74;98010.94;5025307;28;1537;-80
2022/10/25 11:19:41;;;;;;;;;;;;;;;21.32;30.33;98004.78;5033836;28;1540;-80
2022/10/25 11:22:21;;;;;;;;;;;;;;;21.47;29.83;98004.41;5051359;28;1117;-80
2022/10/25 11:25:05;;;;;;;;;;;;;;;21.27;30.25;97998.81;5034379;28;801;-80
2022/10/25 11:27:30;;;;;;;;;;;;;;;21.14;30.51;97992.28;5037647;28;1918;-80
2022/10/25 11:30:11;;;;;;;;;;;;;;;20.90;30.89;97988.84;5045365;28;1601;-80
2022/10/25 11:32:46;;;;;;;;;;;;;;;21.05;30.64;97995.75;5056065;28;885;-80
2022/10/25 11:35:19;;;;;;;;;;;;;;;21.20;30.12;97994.16;5071895;28;754;-80
2022/10/25 11:41:36;;;;;;;;;;;;;;;21.37;30.13;97988.50;5056456;28;605;-80
2022/10/25 11:44:08;;;;;;;;;;;;;;;21.11;30.41;97990.34;5053789;28;1703;-80
2022/10/25 11:46:43;;;;;;;;;;;;;;;21.31;30.34;97986.22;5055964;28;1971;-80
2022/10/25 11:49:11;;;;;;;;;;;;;;;21.16;30.43;98001.94;5056189;28;830;-80
2022/10/25 11:51:39;;;;;;;;;;;;;;;21.02;30.50;98000.22;5055449;28;787;-80
2022/10/25 11:54:08;;;;;;;;;;;;;;;20.98;30.85;97995.91;5089158;28;1074;-80
2022/10/25 12:00:18;;;;;;;;;;;;;;;20.79;30.80;97984.22;5036372;28;613;-79
2022/10/25 12:02:50;;;;;;;;;;;;;;;21.38;29.96;97985.22;5035291;28;1135;-80
2022/10/25 12:05:34;;;;;;;;;;;;;;;21.44;30.05;97982.66;5035872;28;1457;-80
2022/10/25 12:08:02;;;;;;;;;;;;;;;21.15;30.32;97991.84;5036226;28;728;-80
2022/10/25 12:10:34;;;;;;;;;;;;;;;21.13;30.39;97991.47;5035260;28;1163;-80
2022/10/25 12:13:11;;;;;;;;;;;;;;;21.09;30.60;97987.97;5036275;28;708;-80
2022/10/25 12:15:38;;;;;;;;;;;;;;;21.25;30.08;97981.50;5035001;28;755;-80
2022/10/25 12:18:04;;;;;;;;;;;;;;;21.12;30.34;97987.06;5034976;28;743;-80
2022/10/25 12:20:30;;;;;;;;;;;;;;;21.10;30.38;97978.22;5044316;28;1348;-80
2022/10/25 12:22:56;;;;;;;;;;;;;;;21.01;30.47;97972.41;5070405;28;877;-80
2022/10/25 12:25:24;;;;;;;;;;;;;;;21.16;30.37;97973.63;5053822;28;1183;-80
2022/10/25 12:27:53;;;;;;;;;;;;;;;21.53;29.69;97977.16;5054570;28;1910;-80
2022/10/25 12:30:18;;;;;;;;;;;;;;;21.27;30.41;97979.03;5072991;28;1469;-80
2022/10/25 12:32:44;;;;;;;;;;;;;;;21.16;30.53;97976.47;5040927;28;1174;-80
2022/10/25 12:35:30;;;;;;;;;;;;;;;20.98;30.91;97973.25;5057201;28;839;-80
2022/10/25 12:37:59;;;;;;;;;;;;;;;20.97;30.83;97977.34;5074131;28;826;-80
2022/10/25 12:40:25;;;;;;;;;;;;;;;20.91;30.74;97974.25;5069878;28;1551;-80
2022/10/25 12:42:58;;;;;;;;;;;;;;;20.99;30.58;97975.69;5054076;28;934;-80
2022/10/25 12:45:38;;;;;;;;;;;;;;;20.93;30.74;97968.13;5048998;28;1536;-80
2022/10/25 12:48:06;;;;;;;;;;;;;;;21.00;30.65;97965.16;5073894;28;1309;-79
2022/10/25 12:50:38;;;;;;;;;;;;;;;20.88;30.91;97968.66;5054913;28;1497;-80
2022/10/25 12:53:06;;;;;;;;;;;;;;;21.05;30.82;97967.44;5021159;28;1320;-80
2022/10/25 12:55:31;;;;;;;;;;;;;;;21.41;30.14;97961.69;5036868;28;923;-80
2022/10/25 12:57:57;;;;;;;;;;;;;;;21.37;29.79;97971.53;5053571;28;715;-80
2022/10/25 13:00:22;;;;;;;;;;;;;;;21.07;30.82;97964.97;5037367;28;842;-80
2022/10/25 13:03:08;;;;;;;;;;;;;;;20.96;30.99;97975.75;5004047;28;1168;-80
2022/10/25 13:05:52;;;;;;;;;;;;;;;20.94;30.90;97966.91;5036324;28;1977;-80
2022/10/25 13:08:18;;;;;;;;;;;;;;;21.09;30.75;97956.84;5038616;28;826;-80
2022/10/25 13:10:48;;;;;;;;;;;;;;;20.97;30.93;97960.38;5075229;28;1379;-80
2022/10/25 13:13:18;;;;;;;;;;;;;;;20.94;30.70;97967.72;5057856;28;771;-80
2022/10/25 13:15:45;;;;;;;;;;;;;;;21.11;30.73;97965.69;5057537;28;802;-80
2022/10/25 13:18:34;;;;;;;;;;;;;;;21.58;29.80;97963.25;5057882;28;809;-80
2022/10/25 13:21:00;;;;;;;;;;;;;;;21.42;29.88;97963.28;5053188;28;1068;-79
2022/10/25 13:23:41;;;;;;;;;;;;;;;21.14;30.42;97956.31;5019955;28;1088;-80
2022/10/25 13:26:07;;;;;;;;;;;;;;;21.05;30.96;97961.78;5035306;28;1957;-80
2022/10/25 13:28:32;;;;;;;;;;;;;;;21.14;30.42;97958.31;5036930;28;1119;-80